Time;durP1;ratioP1;P1;durP2;ratioP2;P2;SDS_P1;SDS_P2;PMS_P1;PMS_P2;Temp;Humidity;BMP_temperature;BMP_pressure;BME280_temperature;BME280_humidity;BME280_pressure;Samples;Min_cycle;Max_cycle;Signal;HPM_P1;HPM_P2
2022/12/09 00:01:24;;;;;;;43.80;19.83;;;;;;;8.04;93.51;97001.41;5070778;28;20552;-78
2022/12/09 00:03:53;;;;;;;37.50;20.13;;;;;;;8.19;93.08;97009.44;5088308;28;20243;-78
2022/12/09 00:06:22;;;;;;;44.50;21.43;;;;;;;8.28;92.13;96999.72;5087866;28;20683;-79
2022/12/09 00:08:50;;;;;;;37.93;19.80;;;;;;;8.35;91.91;97007.16;5088572;28;20230;-78
2022/12/09 00:11:18;;;;;;;37.73;20.10;;;;;;;8.26;92.07;97004.94;5087481;28;20199;-79
2022/12/09 00:13:53;;;;;;;44.80;20.30;;;;;;;8.06;93.05;96997.88;5088465;28;20294;-78
2022/12/09 00:16:21;;;;;;;40.77;20.87;;;;;;;8.08;93.05;97016.72;5087304;28;20207;-78
2022/12/09 00:18:49;;;;;;;35.77;19.33;;;;;;;8.12;93.10;97020.03;5088138;28;20296;-77
2022/12/09 00:21:22;;;;;;;34.97;18.90;;;;;;;8.17;92.70;97013.81;5087853;28;20698;-78
2022/12/09 00:23:51;;;;;;;34.17;17.73;;;;;;;8.21;93.34;97001.63;5087683;28;20188;-79
2022/12/09 00:26:20;;;;;;;35.37;17.77;;;;;;;8.40;92.64;97004.41;5090219;28;20690;-78
2022/12/09 00:28:48;;;;;;;32.13;18.07;;;;;;;8.15;91.87;96951.13;5087063;28;20237;-77
2022/12/09 00:31:18;;;;;;;42.53;20.33;;;;;;;8.53;91.37;96995.31;5088635;28;20187;-78
2022/12/09 00:33:46;;;;;;;33.00;17.10;;;;;;;8.57;91.24;97010.59;5086792;28;20196;-78
2022/12/09 00:36:15;;;;;;;36.37;18.53;;;;;;;8.62;90.82;97015.59;5088162;28;20203;-78
2022/12/09 00:38:43;;;;;;;38.53;20.27;;;;;;;8.64;90.23;97009.47;5087280;28;20688;-78
2022/12/09 00:41:10;;;;;;;33.13;19.67;;;;;;;8.70;90.42;97006.66;5087832;28;20224;-77
2022/12/09 00:43:37;;;;;;;41.27;20.60;;;;;;;8.76;89.83;97013.31;5070597;28;20779;-78
2022/12/09 00:46:05;;;;;;;37.17;18.80;;;;;;;8.32;90.38;96984.06;5068603;28;20194;-77
2022/12/09 00:48:37;;;;;;;37.23;20.63;;;;;;;8.49;90.81;97007.47;5087997;28;20231;-78
2022/12/09 00:51:06;;;;;;;36.93;18.57;;;;;;;8.53;90.96;97016.78;5086355;28;20189;-78
2022/12/09 00:53:32;;;;;;;31.00;18.33;;;;;;;8.45;90.83;97002.50;5088109;28;20204;-78
2022/12/09 00:56:00;;;;;;;35.10;18.90;;;;;;;8.22;91.57;97003.34;5068455;28;20200;-78
2022/12/09 00:58:27;;;;;;;32.23;17.23;;;;;;;8.18;92.54;96991.47;5087176;28;20603;-78
2022/12/09 01:00:54;;;;;;;30.33;17.17;;;;;;;8.35;92.43;96999.41;5087479;28;20202;-78
2022/12/09 01:03:22;;;;;;;40.33;17.27;;;;;;;8.48;91.81;97004.97;5086490;28;20269;-79
2022/12/09 01:05:50;;;;;;;32.33;17.50;;;;;;;8.54;91.66;96999.56;5087742;28;20201;-79
2022/12/09 01:08:17;;;;;;;32.53;17.43;;;;;;;8.45;91.23;96999.94;5086033;28;20285;-79
2022/12/09 01:10:45;;;;;;;35.13;17.40;;;;;;;8.59;91.36;96995.94;5087489;28;20345;-80
2022/12/09 01:13:13;;;;;;;33.20;15.13;;;;;;;8.43;90.76;96965.59;5068502;28;20244;-77
2022/12/09 01:15:43;;;;;;;33.63;17.53;;;;;;;8.63;91.00;96994.06;5087102;28;20659;-78
2022/12/09 01:18:11;;;;;;;37.47;16.73;;;;;;;8.74;90.25;97002.19;5087534;28;20192;-78
2022/12/09 01:20:38;;;;;;;31.93;17.57;;;;;;;8.78;89.93;97003.75;5067762;28;20192;-77
2022/12/09 01:23:06;;;;;;;32.27;17.73;;;;;;;8.68;89.68;97007.59;5087238;28;20196;-77
2022/12/09 01:25:33;;;;;;;31.30;17.53;;;;;;;8.73;89.85;97005.69;5067743;28;20208;-79
2022/12/09 01:28:00;;;;;;;32.80;18.07;;;;;;;8.60;90.23;96997.59;5069529;28;20245;-79
2022/12/09 01:30:27;;;;;;;31.50;16.13;;;;;;;8.60;90.01;96987.25;5086103;28;20245;-79
2022/12/09 01:32:55;;;;;;;28.13;15.63;;;;;;;8.75;90.18;97003.91;5087227;28;20219;-78
2022/12/09 01:35:22;;;;;;;24.77;15.90;;;;;;;8.75;89.97;97003.91;5087162;28;20200;-79
2022/12/09 01:37:49;;;;;;;28.27;16.10;;;;;;;8.71;89.78;97010.94;5067922;28;20200;-79
2022/12/09 01:40:17;;;;;;;27.27;15.27;;;;;;;8.69;90.26;97006.72;5069118;28;20231;-78
2022/12/09 01:42:44;;;;;;;29.10;15.20;;;;;;;8.69;90.16;97010.16;5068070;28;20284;-78
2022/12/09 01:45:20;;;;;;;28.90;15.87;;;;;;;8.73;90.41;97010.88;5088795;28;20207;-79
2022/12/09 01:47:57;;;;;;;27.43;14.93;;;;;;;8.57;90.72;96989.94;5086335;28;20203;-79
2022/12/09 01:50:26;;;;;;;33.57;15.37;;;;;;;8.55;90.60;96998.69;5086603;28;20306;-78
2022/12/09 01:52:54;;;;;;;30.67;15.77;;;;;;;8.47;91.14;97000.72;5087133;28;20253;-80
2022/12/09 01:55:23;;;;;;;31.37;15.67;;;;;;;8.55;90.83;97003.84;5067629;28;20703;-78
2022/12/09 01:57:51;;;;;;;29.83;16.20;;;;;;;8.57;90.93;97000.28;5087175;28;20643;-79
2022/12/09 02:00:19;;;;;;;29.80;15.30;;;;;;;8.51;91.10;96992.78;5067259;28;20232;-79
2022/12/09 02:02:49;;;;;;;27.13;15.60;;;;;;;8.65;90.50;96990.53;5088478;28;20265;-79
2022/12/09 02:05:19;;;;;;;27.90;15.30;;;;;;;8.65;90.67;97000.00;5049287;28;20217;-79
2022/12/09 02:07:52;;;;;;;30.20;17.10;;;;;;;8.75;90.08;96998.72;5048168;28;20185;-79
2022/12/09 02:10:21;;;;;;;28.67;14.90;;;;;;;8.65;90.73;96982.78;5056085;28;20708;-80
2022/12/09 02:13:22;;;;;;;27.13;15.50;;;;;;;8.72;90.32;96976.47;5036560;28;20201;-79
2022/12/09 02:15:58;;;;;;;28.70;15.33;;;;;;;8.80;89.58;97000.22;5075803;28;20273;-80
2022/12/09 02:19:15;;;;;;;29.70;15.20;;;;;;;8.82;89.54;96989.84;5060682;28;20259;-79
2022/12/09 02:21:56;;;;;;;30.97;15.60;;;;;;;8.85;88.90;96979.41;4964512;28;20205;-79
2022/12/09 02:24:37;;;;;;;27.00;15.97;;;;;;;8.75;89.43;96993.56;5072297;28;20291;-77
2022/12/09 02:27:40;;;;;;;26.60;15.60;;;;;;;8.79;89.39;97002.88;5061315;28;20219;-77
2022/12/09 02:30:14;;;;;;;29.70;15.77;;;;;;;8.79;89.31;96985.66;5052245;28;20232;-78
2022/12/09 02:33:04;;;;;;;27.33;15.77;;;;;;;8.68;89.25;96987.81;5052084;28;20311;-78
2022/12/09 02:35:50;;;;;;;33.50;16.90;;;;;;;8.66;90.27;96984.44;5063317;28;20274;-79
2022/12/09 02:38:24;;;;;;;28.93;15.60;;;;;;;8.51;90.55;96960.97;5071736;28;20187;-79
2022/12/09 02:40:58;;;;;;;31.40;17.23;;;;;;;8.50;90.76;96974.78;5072078;28;20263;-79
2022/12/09 02:43:34;;;;;;;29.90;17.07;;;;;;;8.48;91.26;96980.00;5070717;28;20207;-79
2022/12/09 02:46:04;;;;;;;29.53;15.80;;;;;;;8.54;90.87;96978.91;5072130;28;20585;-79
2022/12/09 02:48:35;;;;;;;31.83;15.73;;;;;;;8.61;90.86;96990.69;5070923;28;20592;-80
2022/12/09 02:51:08;;;;;;;26.70;14.40;;;;;;;8.48;90.99;96984.31;5072814;28;20193;-78
2022/12/09 02:53:37;;;;;;;26.83;16.13;;;;;;;8.37;91.39;96960.66;5090318;28;20695;-78
2022/12/09 02:56:07;;;;;;;26.37;15.03;;;;;;;8.65;90.48;96987.94;5079489;28;20719;-78
2022/12/09 02:58:34;;;;;;;28.30;15.60;;;;;;;8.66;90.47;96996.50;5089684;28;20728;-78
2022/12/09 03:01:02;;;;;;;27.93;15.40;;;;;;;8.59;90.08;96998.50;5088648;28;20200;-78
2022/12/09 03:03:32;;;;;;;30.53;15.47;;;;;;;8.40;90.39;96994.09;5083299;28;20207;-77
2022/12/09 03:06:06;;;;;;;29.27;15.30;;;;;;;8.35;91.15;96985.66;5086667;28;20245;-80
2022/12/09 03:08:50;;;;;;;31.07;17.17;;;;;;;8.39;91.46;96992.44;5088988;28;20199;-77
2022/12/09 03:11:20;;;;;;;33.40;16.60;;;;;;;8.18;91.29;96966.47;5089464;28;20202;-77
2022/12/09 03:14:05;;;;;;;34.17;16.30;;;;;;;8.37;91.97;96999.34;5088116;28;20682;-79
2022/12/09 03:16:36;;;;;;;32.03;17.27;;;;;;;8.45;91.29;97000.75;5089497;28;20279;-78
2022/12/09 03:19:14;;;;;;;30.67;17.53;;;;;;;8.49;91.20;96989.41;5088582;28;20192;-79
2022/12/09 03:21:50;;;;;;;28.23;15.67;;;;;;;8.45;90.92;97005.91;5088684;28;20279;-78
2022/12/09 03:24:23;;;;;;;38.10;16.63;;;;;;;8.39;91.78;96995.00;5089655;28;20920;-78
2022/12/09 03:26:52;;;;;;;33.60;15.97;;;;;;;8.45;91.09;96995.59;5088044;28;20669;-77
2022/12/09 03:29:24;;;;;;;28.57;16.20;;;;;;;7.94;90.70;96910.66;5088062;28;20266;-78
2022/12/09 03:31:54;;;;;;;25.77;14.73;;;;;;;8.50;90.78;96988.53;5088134;28;20673;-78
2022/12/09 03:34:26;;;;;;;29.63;16.17;;;;;;;8.66;90.86;96999.09;5088748;28;20633;-79
2022/12/09 03:36:56;;;;;;;30.07;15.10;;;;;;;8.64;90.08;97000.88;5092027;28;20187;-78
2022/12/09 03:39:28;;;;;;;26.47;14.07;;;;;;;8.52;90.41;96997.03;5089754;28;20208;-78
2022/12/09 03:42:00;;;;;;;29.10;15.67;;;;;;;8.56;90.14;96997.75;5089166;28;20211;-78
2022/12/09 03:44:33;;;;;;;26.97;15.03;;;;;;;8.60;90.44;97020.81;5089316;28;20192;-79
2022/12/09 03:47:03;;;;;;;33.40;15.13;;;;;;;8.58;90.19;97026.94;5091480;28;20216;-77
2022/12/09 03:49:30;;;;;;;36.73;16.43;;;;;;;8.56;90.76;97021.00;5089271;28;20347;-79
2022/12/09 03:52:12;;;;;;;45.87;18.97;;;;;;;8.63;90.83;97025.03;5090184;28;20287;-78
2022/12/09 03:54:42;;;;;;;42.93;17.63;;;;;;;8.61;90.76;97029.41;5089175;28;20706;-79
2022/12/09 03:57:15;;;;;;;44.07;18.57;;;;;;;8.53;91.34;97024.50;5087666;28;20196;-76
2022/12/09 03:59:58;;;;;;;45.10;17.90;;;;;;;8.56;91.74;97029.59;5088605;28;20262;-78
2022/12/09 04:02:26;;;;;;;42.93;19.30;;;;;;;8.68;91.39;97030.84;5088177;28;20587;-78
2022/12/09 04:04:54;;;;;;;43.77;19.20;;;;;;;8.66;91.13;97036.06;5087942;28;20702;-78
2022/12/09 04:07:21;;;;;;;42.93;19.90;;;;;;;8.55;92.06;97032.22;5088433;28;20250;-78
2022/12/09 04:09:48;;;;;;;44.10;19.40;;;;;;;8.36;92.63;97023.47;5087116;28;20222;-77
2022/12/09 04:12:15;;;;;;;50.70;21.40;;;;;;;8.36;92.60;97031.22;5088381;28;20579;-77
2022/12/09 04:14:42;;;;;;;47.27;21.80;;;;;;;8.21;93.64;97030.88;5087068;28;20287;-78
2022/12/09 04:17:10;;;;;;;55.67;19.60;;;;;;;8.14;94.26;97025.97;5088342;28;20204;-78
2022/12/09 04:19:37;;;;;;;49.70;19.37;;;;;;;8.11;94.67;97046.72;5087139;28;20206;-77
2022/12/09 04:22:04;;;;;;;49.27;18.53;;;;;;;8.19;95.47;97034.38;5087979;28;20203;-78
2022/12/09 04:24:31;;;;;;;63.97;20.10;;;;;;;8.11;95.66;97018.34;5088428;28;20201;-77
2022/12/09 04:26:58;;;;;;;45.73;17.93;;;;;;;8.08;96.54;97027.03;5086811;28;20765;-77
2022/12/09 04:29:25;;;;;;;42.93;16.17;;;;;;;8.04;96.46;97017.72;5088100;28;20222;-78
2022/12/09 04:31:52;;;;;;;34.80;13.73;;;;;;;8.07;96.67;97021.94;5086835;28;20196;-79
2022/12/09 04:34:19;;;;;;;39.53;14.73;;;;;;;8.03;96.16;97010.91;5086801;28;20200;-78
2022/12/09 04:36:47;;;;;;;33.60;14.83;;;;;;;8.09;96.03;97007.25;5086706;28;20227;-77
2022/12/09 04:39:15;;;;;;;35.47;14.00;;;;;;;8.21;96.40;97022.28;5087748;28;20707;-78
2022/12/09 04:41:42;;;;;;;29.30;12.67;;;;;;;8.25;94.88;97023.88;5087988;28;20663;-78
2022/12/09 04:44:09;;;;;;;27.40;12.03;;;;;;;8.25;95.22;97008.41;5086792;28;20627;-78
2022/12/09 04:46:36;;;;;;;34.13;14.70;;;;;;;8.30;95.26;97003.06;5086185;28;20204;-78
2022/12/09 04:49:03;;;;;;;36.43;15.50;;;;;;;8.29;95.18;97001.38;5086620;28;20206;-79
2022/12/09 04:51:30;;;;;;;40.80;15.83;;;;;;;8.38;94.50;97001.03;5087961;28;20227;-79
2022/12/09 04:54:06;;;;;;;35.20;14.63;;;;;;;8.03;94.40;96956.75;5086577;28;20227;-79
2022/12/09 04:56:33;;;;;;;30.63;13.70;;;;;;;8.39;94.51;97010.47;5087594;28;20200;-78
2022/12/09 04:59:00;;;;;;;36.47;15.57;;;;;;;8.40;93.60;97007.84;5087153;28;20241;-77
2022/12/09 05:01:27;;;;;;;35.23;13.40;;;;;;;8.19;94.10;97006.00;5087282;28;20207;-78
2022/12/09 05:03:58;;;;;;;31.37;12.57;;;;;;;8.03;94.85;97012.63;5087479;28;20203;-77
2022/12/09 05:06:25;;;;;;;31.60;12.97;;;;;;;8.03;95.41;97016.06;5086229;28;20205;-79
2022/12/09 05:08:53;;;;;;;29.80;12.47;;;;;;;8.09;95.80;97027.88;5084693;28;20603;-77
2022/12/09 05:11:22;;;;;;;38.53;14.23;;;;;;;8.14;95.08;97024.22;5086358;28;20255;-79
2022/12/09 05:13:52;;;;;;;32.73;13.67;;;;;;;7.97;95.50;97039.50;5065858;28;20205;-79
2022/12/09 05:16:20;;;;;;;35.67;12.03;;;;;;;7.80;96.39;97010.88;5075200;28;20234;-79
2022/12/09 05:18:47;;;;;;;41.33;12.87;;;;;;;7.70;96.79;97025.00;5086427;28;20690;-78
2022/12/09 05:21:17;;;;;;;31.80;12.97;;;;;;;7.58;97.01;97022.84;5087644;28;20212;-79
2022/12/09 05:23:45;;;;;;;39.67;12.97;;;;;;;7.47;97.67;97032.66;5081522;28;20201;-80
2022/12/09 05:26:16;;;;;;;36.67;12.93;;;;;;;7.44;97.85;96996.69;5070124;28;20538;-79
2022/12/09 05:28:43;;;;;;;30.53;13.77;;;;;;;7.79;97.31;97050.44;5085839;28;20583;-77
2022/12/09 05:31:15;;;;;;;28.50;14.83;;;;;;;7.87;97.30;97047.59;5068916;28;20235;-78
2022/12/09 05:33:44;;;;;;;29.47;13.47;;;;;;;7.86;96.82;97041.59;5087123;28;20567;-79
2022/12/09 05:36:14;;;;;;;27.00;12.70;;;;;;;7.91;96.25;97041.44;5086211;28;20588;-77
2022/12/09 05:38:41;;;;;;;24.03;11.23;;;;;;;8.05;95.97;97036.63;5087391;28;20229;-78
2022/12/09 05:41:09;;;;;;;28.70;11.80;;;;;;;7.83;94.74;97035.72;5085587;28;20857;-78
2022/12/09 05:43:38;;;;;;;28.17;11.80;;;;;;;7.73;96.07;97037.75;5086620;28;20194;-78
2022/12/09 05:46:06;;;;;;;25.40;11.23;;;;;;;7.74;95.23;97026.56;5085486;28;20206;-78
2022/12/09 05:48:34;;;;;;;28.37;11.80;;;;;;;7.71;95.07;97018.06;5086561;28;20269;-78
2022/12/09 05:51:07;;;;;;;27.57;11.40;;;;;;;7.91;94.57;97044.84;5086556;28;20323;-79
2022/12/09 05:53:35;;;;;;;26.47;12.10;;;;;;;7.81;94.55;97030.59;5085803;28;20196;-79
2022/12/09 05:56:02;;;;;;;25.23;12.03;;;;;;;7.93;94.16;97032.72;5086769;28;20211;-81
2022/12/09 05:58:30;;;;;;;26.47;13.50;;;;;;;8.06;94.38;97046.88;5089037;28;20389;-79
2022/12/09 06:01:05;;;;;;;31.30;13.63;;;;;;;8.10;93.75;97043.28;5090947;28;20325;-78
2022/12/09 06:03:34;;;;;;;26.23;12.73;;;;;;;8.05;94.21;97052.09;5090031;28;20644;-79
2022/12/09 06:06:05;;;;;;;32.93;12.77;;;;;;;8.17;93.59;97051.66;5090153;28;20235;-79
2022/12/09 06:08:33;;;;;;;30.87;14.40;;;;;;;7.98;93.86;97030.84;5090466;28;20200;-79
2022/12/09 06:11:00;;;;;;;38.40;12.40;;;;;;;8.03;93.21;97047.00;5081782;28;20322;-79
2022/12/09 06:13:28;;;;;;;60.73;14.30;;;;;;;7.91;93.48;97024.22;5070362;28;20278;-78
2022/12/09 06:16:01;;;;;;;26.73;13.57;;;;;;;8.19;93.37;97050.72;5068765;28;20189;-79
2022/12/09 06:18:28;;;;;;;29.10;12.63;;;;;;;8.13;93.43;97043.19;5070106;28;20712;-78
2022/12/09 06:20:55;;;;;;;34.77;13.70;;;;;;;8.18;93.73;97053.34;5069180;28;20621;-79
2022/12/09 06:23:22;;;;;;;34.43;13.47;;;;;;;8.01;93.46;97060.84;5069851;28;20204;-77
2022/12/09 06:25:49;;;;;;;36.50;14.23;;;;;;;8.06;93.28;97059.78;5069801;28;20209;-78
2022/12/09 06:28:18;;;;;;;40.17;16.07;;;;;;;8.12;92.68;97054.41;5068897;28;20572;-79
2022/12/09 06:30:45;;;;;;;39.10;13.70;;;;;;;8.15;93.67;97059.47;5069837;28;20239;-78
2022/12/09 06:33:12;;;;;;;26.60;12.90;;;;;;;7.80;93.44;97012.63;5068956;28;20302;-79
2022/12/09 06:36:01;;;;;;;31.67;13.60;;;;;;;7.99;93.67;97048.00;5069986;28;20216;-79
2022/12/09 06:38:28;;;;;;;31.40;14.33;;;;;;;8.23;93.55;97061.75;5069342;28;20192;-78
2022/12/09 06:40:55;;;;;;;27.87;12.60;;;;;;;8.16;93.06;97055.97;5069428;28;20197;-78
2022/12/09 06:43:22;;;;;;;43.17;13.87;;;;;;;8.05;93.43;97055.53;5069817;28;20231;-79
2022/12/09 06:45:49;;;;;;;47.93;14.83;;;;;;;7.82;94.38;97070.97;5068940;28;20238;-80
2022/12/09 06:48:17;;;;;;;43.97;17.23;;;;;;;7.90;93.97;97068.94;5070766;28;20201;-79
2022/12/09 06:50:45;;;;;;;44.27;17.07;;;;;;;7.76;94.89;97060.88;5068506;28;20604;-79
2022/12/09 06:53:12;;;;;;;33.67;15.20;;;;;;;7.85;95.45;97059.72;5069618;28;20797;-79
2022/12/09 06:55:39;;;;;;;36.73;15.30;;;;;;;7.97;95.30;97060.13;5069383;28;20204;-79
2022/12/09 06:58:06;;;;;;;60.27;18.17;;;;;;;8.06;94.58;97044.31;5070780;28;20200;-79
2022/12/09 07:00:34;;;;;;;58.00;19.67;;;;;;;8.18;94.40;97069.66;5069264;28;20203;-79
2022/12/09 07:03:01;;;;;;;41.00;17.03;;;;;;;8.06;94.12;97041.72;5068408;28;20210;-79
2022/12/09 07:05:28;;;;;;;36.47;16.77;;;;;;;8.26;93.33;97061.69;5069318;28;20240;-79
2022/12/09 07:07:56;;;;;;;33.77;14.77;;;;;;;8.38;92.89;97073.28;5068251;28;20196;-79
2022/12/09 07:10:23;;;;;;;37.57;17.20;;;;;;;8.38;92.19;97075.88;5068964;28;20704;-80
2022/12/09 07:12:50;;;;;;;31.83;14.50;;;;;;;8.40;91.73;97074.94;5067972;28;20207;-79
2022/12/09 07:15:18;;;;;;;35.53;15.70;;;;;;;8.48;91.84;97072.91;5068883;28;20258;-78
2022/12/09 07:17:45;;;;;;;38.77;16.13;;;;;;;7.95;92.13;97035.28;5068784;28;20189;-79
2022/12/09 07:20:12;;;;;;;48.90;16.40;;;;;;;8.16;92.20;97068.88;5068470;28;20193;-80
2022/12/09 07:22:39;;;;;;;44.83;15.97;;;;;;;7.88;92.88;97060.44;5069104;28;20262;-80
2022/12/09 07:25:07;;;;;;;42.53;16.57;;;;;;;8.00;92.78;97082.34;5067847;28;20274;-79
2022/12/09 07:27:35;;;;;;;33.67;13.93;;;;;;;7.80;93.43;97072.75;5069157;28;20193;-79
2022/12/09 07:30:03;;;;;;;33.93;16.53;;;;;;;7.82;94.68;97067.53;5067505;28;20200;-80
2022/12/09 07:32:30;;;;;;;43.27;18.73;;;;;;;7.90;94.00;97074.09;5068743;28;20200;-80
2022/12/09 07:34:58;;;;;;;39.23;19.13;;;;;;;7.85;93.34;97059.72;5078159;28;20663;-80
2022/12/09 07:37:25;;;;;;;39.47;16.60;;;;;;;7.99;93.71;97072.94;5079040;28;20690;-80
2022/12/09 07:39:52;;;;;;;45.60;18.20;;;;;;;7.95;92.73;97085.13;5088862;28;20194;-80
2022/12/09 07:42:19;;;;;;;41.57;16.80;;;;;;;7.91;92.84;97080.13;5087573;28;20207;-78
2022/12/09 07:44:52;;;;;;;35.33;16.20;;;;;;;7.95;93.08;97072.22;5061824;28;20238;-78
2022/12/09 07:47:19;;;;;;;36.67;17.23;;;;;;;8.13;93.02;97066.41;5078543;28;20219;-79
2022/12/09 07:49:47;;;;;;;40.43;17.77;;;;;;;8.34;92.31;97066.56;5088205;28;20215;-80
2022/12/09 07:52:16;;;;;;;39.43;21.43;;;;;;;8.53;91.66;97077.91;5087426;28;20819;-80
2022/12/09 07:54:43;;;;;;;41.27;20.90;;;;;;;8.59;90.80;97080.25;5084026;28;20220;-79
2022/12/09 07:57:10;;;;;;;30.40;18.40;;;;;;;8.45;90.20;97049.78;5079265;28;20286;-81
2022/12/09 07:59:37;;;;;;;38.20;18.40;;;;;;;8.69;90.07;97091.91;5066791;28;20319;-80
2022/12/09 08:02:04;;;;;;;32.97;16.20;;;;;;;8.55;89.46;97060.63;5067920;28;20741;-77
2022/12/09 08:04:34;;;;;;;34.07;17.07;;;;;;;8.70;89.54;97094.44;5067374;28;20261;-78
2022/12/09 08:07:01;;;;;;;36.50;20.13;;;;;;;8.81;89.49;97083.69;5079756;28;20734;-78
2022/12/09 08:09:29;;;;;;;49.93;22.97;;;;;;;8.94;89.51;97088.31;5066463;28;20196;-77
2022/12/09 08:11:57;;;;;;;57.23;24.17;;;;;;;8.68;89.82;97095.38;5067525;28;20290;-77
2022/12/09 08:14:24;;;;;;;54.50;25.50;;;;;;;8.67;90.04;97099.72;5067466;28;20288;-80
2022/12/09 08:16:51;;;;;;;49.43;23.07;;;;;;;8.52;90.44;97086.53;5072113;28;20300;-80
2022/12/09 08:19:19;;;;;;;46.90;22.70;;;;;;;8.38;90.17;97089.63;5069373;28;20196;-80
2022/12/09 08:21:46;;;;;;;43.03;20.33;;;;;;;8.23;91.29;97067.75;5075321;28;20266;-79
2022/12/09 08:24:20;;;;;;;48.73;20.47;;;;;;;8.45;91.32;97083.31;5067473;28;20201;-77
2022/12/09 08:26:49;;;;;;;51.07;22.43;;;;;;;8.59;90.84;97095.72;5066005;28;20203;-77
2022/12/09 08:29:17;;;;;;;40.80;21.77;;;;;;;8.71;90.49;97098.72;5072929;28;20197;-79
2022/12/09 08:31:44;;;;;;;43.77;20.90;;;;;;;8.76;89.78;97080.44;5087479;28;20251;-79
2022/12/09 08:34:13;;;;;;;48.63;21.07;;;;;;;8.98;89.46;97094.22;5075331;28;20209;-78
2022/12/09 08:36:41;;;;;;;47.50;20.77;;;;;;;8.93;88.43;97093.56;5067144;28;20271;-78
2022/12/09 08:39:10;;;;;;;38.47;18.77;;;;;;;9.01;89.12;97101.84;5065179;28;20737;-78
2022/12/09 08:41:37;;;;;;;42.10;19.23;;;;;;;8.94;88.39;97092.66;5075434;28;20589;-78
2022/12/09 08:44:49;;;;;;;43.30;19.87;;;;;;;9.14;87.95;97099.63;5085141;28;20246;-77
2022/12/09 08:48:10;;;;;;;42.67;21.03;;;;;;;8.87;88.37;97092.06;5084720;28;20207;-79
2022/12/09 08:50:52;;;;;;;44.77;20.23;;;;;;;8.78;87.85;97074.31;5072141;28;20229;-78
2022/12/09 08:53:19;;;;;;;37.57;19.50;;;;;;;8.82;88.63;97082.81;5077387;28;20667;-80
2022/12/09 08:55:46;;;;;;;38.23;18.87;;;;;;;8.72;89.40;97069.41;5086122;28;20258;-79
2022/12/09 08:58:14;;;;;;;43.13;22.87;;;;;;;8.84;89.44;97074.09;5086998;28;20753;-79
2022/12/09 09:00:40;;;;;;;53.30;24.87;;;;;;;8.84;88.99;97062.94;5085563;28;20736;-79
2022/12/09 09:03:08;;;;;;;53.50;24.33;;;;;;;8.41;90.77;97062.88;5068707;28;20747;-79
2022/12/09 09:05:35;;;;;;;54.67;24.17;;;;;;;8.59;90.50;97065.63;5079778;28;20225;-79
2022/12/09 09:08:03;;;;;;;52.67;23.13;;;;;;;8.74;90.64;97064.16;5086866;28;20195;-79
2022/12/09 09:10:30;;;;;;;51.10;23.07;;;;;;;8.86;90.03;97048.22;5086116;28;20212;-79
2022/12/09 09:12:58;;;;;;;48.80;24.07;;;;;;;9.06;89.73;97070.69;5086738;28;20620;-80
2022/12/09 09:15:25;;;;;;;52.23;22.90;;;;;;;9.14;88.99;97047.97;5068576;28;20262;-80
2022/12/09 09:17:52;;;;;;;40.60;21.47;;;;;;;9.02;88.96;97038.97;5049981;28;20201;-79
2022/12/09 09:20:20;;;;;;;49.07;23.27;;;;;;;9.17;88.45;97042.69;5066975;28;20297;-80
2022/12/09 09:22:47;;;;;;;45.40;22.60;;;;;;;9.20;88.16;97058.91;5070394;28;20209;-80
2022/12/09 09:25:14;;;;;;;51.50;25.47;;;;;;;9.17;87.68;97048.66;5068737;28;20219;-80
2022/12/09 09:27:42;;;;;;;48.07;25.33;;;;;;;9.10;88.04;97055.00;5065604;28;20627;-80
2022/12/09 09:30:09;;;;;;;53.50;27.00;;;;;;;9.12;88.23;97060.94;5080478;28;20200;-80
2022/12/09 09:32:37;;;;;;;49.20;26.60;;;;;;;9.05;88.53;97033.66;5047234;28;20244;-80
2022/12/09 09:35:05;;;;;;;59.23;25.80;;;;;;;9.09;87.72;97009.41;5065917;28;20201;-81
2022/12/09 09:37:32;;;;;;;51.60;25.70;;;;;;;9.29;87.48;97030.13;5066882;28;20192;-81
2022/12/09 09:40:00;;;;;;;44.67;24.37;;;;;;;9.12;87.91;97011.88;5064967;28;20656;-82
2022/12/09 09:42:35;;;;;;;45.50;22.77;;;;;;;8.80;88.53;97001.97;5066360;28;20211;-80
2022/12/09 09:45:10;;;;;;;51.53;25.53;;;;;;;8.71;89.53;97000.59;5065642;28;20584;-79
2022/12/09 09:47:43;;;;;;;49.33;24.47;;;;;;;8.72;90.04;97014.31;5070778;28;20184;-81
2022/12/09 09:50:36;;;;;;;54.97;26.20;;;;;;;8.86;90.01;97012.06;5086613;28;20207;-81
2022/12/09 09:53:30;;;;;;;52.70;27.27;;;;;;;9.06;89.54;97012.13;5086113;28;20667;-80
2022/12/09 09:56:24;;;;;;;61.13;28.40;;;;;;;9.17;89.29;97011.69;5079160;28;20763;-79
2022/12/09 09:59:18;;;;;;;64.30;28.90;;;;;;;9.29;88.45;97013.75;5077663;28;20733;-81
2022/12/09 10:02:21;;;;;;;52.60;27.50;;;;;;;9.38;88.20;97001.28;5072897;28;20216;-80
2022/12/09 10:05:18;;;;;;;69.90;32.03;;;;;;;9.43;88.00;96988.19;5036920;28;20579;-80
2022/12/09 10:08:20;;;;;;;70.23;31.27;;;;;;;9.44;87.37;96988.09;5082211;28;20236;-80
2022/12/09 10:11:13;;;;;;;73.90;34.33;;;;;;;9.56;87.20;96981.59;5081250;28;20215;-80
2022/12/09 10:13:51;;;;;;;78.80;33.43;;;;;;;9.68;86.37;96978.50;5087009;28;20207;-80
2022/12/09 10:16:42;;;;;;;70.70;33.67;;;;;;;9.70;86.68;96987.03;5086672;28;20201;-80
2022/12/09 10:19:10;;;;;;;80.03;31.57;;;;;;;9.78;85.97;96970.25;5085409;28;20215;-80
2022/12/09 10:21:41;;;;;;;58.90;30.93;;;;;;;9.84;85.59;96966.56;5086752;28;20188;-80
2022/12/09 10:24:20;;;;;;;68.93;31.83;;;;;;;9.70;85.59;96943.91;5085658;28;20200;-80
2022/12/09 10:26:58;;;;;;;64.40;29.83;;;;;;;9.70;85.74;96979.25;5085924;28;20284;-79
2022/12/09 10:29:38;;;;;;;69.73;32.37;;;;;;;9.59;86.10;96951.28;5086414;28;20201;-79
2022/12/09 10:32:14;;;;;;;63.93;31.83;;;;;;;9.93;85.61;96975.66;5084113;28;20362;-79
2022/12/09 10:34:42;;;;;;;65.50;33.03;;;;;;;9.96;85.60;96967.75;5085968;28;20200;-79
2022/12/09 10:37:23;;;;;;;65.20;33.37;;;;;;;9.67;85.87;96964.72;5066501;28;20287;-80
2022/12/09 10:40:09;;;;;;;65.57;33.30;;;;;;;9.44;87.57;96961.41;5066899;28;20249;-80
2022/12/09 10:45:49;;;;;;;68.83;33.00;;;;;;;9.43;88.13;96958.03;5087975;28;20288;-80
2022/12/09 10:48:45;;;;;;;66.27;33.73;;;;;;;9.64;87.49;96946.72;5070614;28;20287;-80
2022/12/09 10:51:18;;;;;;;65.60;32.90;;;;;;;9.61;87.37;96946.03;5089537;28;20228;-81
2022/12/09 10:53:53;;;;;;;60.87;31.77;;;;;;;9.28;88.80;96939.72;5088038;28;20504;-80
2022/12/09 10:56:33;;;;;;;68.00;33.17;;;;;;;9.20;89.53;96934.03;5089303;28;20196;-80
2022/12/09 10:59:17;;;;;;;59.53;30.87;;;;;;;9.44;89.08;96931.25;5088022;28;20258;-79
2022/12/09 11:01:52;;;;;;;78.13;35.13;;;;;;;9.59;88.96;96928.00;5089542;28;20292;-79
2022/12/09 11:04:26;;;;;;;58.60;29.37;;;;;;;9.59;88.43;96938.34;5089508;28;20196;-81
2022/12/09 11:06:59;;;;;;;51.83;26.77;;;;;;;9.16;89.63;96923.00;5088330;28;20204;-81
2022/12/09 11:09:32;;;;;;;46.40;22.60;;;;;;;8.94;91.56;96919.63;5089469;28;20192;-81
2022/12/09 11:12:02;;;;;;;44.57;22.53;;;;;;;8.80;92.32;96893.53;5069977;28;20252;-80
2022/12/09 11:14:36;;;;;;;41.37;20.90;;;;;;;8.84;92.40;96910.59;5089519;28;20193;-80
2022/12/09 11:17:15;;;;;;;37.53;18.67;;;;;;;8.58;93.86;96918.53;5077959;28;20514;-81
2022/12/09 11:19:46;;;;;;;45.13;22.13;;;;;;;8.70;93.91;96920.63;5067460;28;20219;-80
2022/12/09 11:22:22;;;;;;;49.90;21.10;;;;;;;9.08;92.46;96914.75;5088850;28;20200;-80
2022/12/09 11:24:53;;;;;;;35.67;17.70;;;;;;;9.29;91.02;96913.84;5087270;28;20283;-80
2022/12/09 11:27:33;;;;;;;38.77;19.27;;;;;;;9.27;90.77;96899.28;5088976;28;20506;-81
2022/12/09 11:30:17;;;;;;;39.93;20.70;;;;;;;9.10;90.99;96899.16;5069702;28;20205;-80
2022/12/09 11:32:56;;;;;;;39.80;21.37;;;;;;;9.11;91.01;96891.34;5049251;28;20712;-81
2022/12/09 11:35:29;;;;;;;39.90;19.50;;;;;;;9.23;92.04;96908.94;5069206;28;20283;-76
2022/12/09 11:38:01;;;;;;;40.37;21.73;;;;;;;9.01;92.68;96906.41;5068147;28;20648;-81
2022/12/09 11:40:29;;;;;;;38.37;20.07;;;;;;;8.89;92.45;96862.16;5069013;28;20204;-81
2022/12/09 11:42:56;;;;;;;43.03;20.10;;;;;;;9.32;91.74;96899.91;5067925;28;20209;-80
2022/12/09 11:45:30;;;;;;;32.13;17.57;;;;;;;9.51;90.66;96899.06;5068104;28;20258;-81
2022/12/09 11:48:20;;;;;;;34.57;16.70;;;;;;;9.12;91.16;96899.94;5068905;28;20561;-82